Aviation Digital Data Service (ADDS)

Output produced by METARs form (1128 UTC 19 January 2018)
found at http://www.aviationweather.gov/adds/metars/
 
LHPP 191045Z 05003KT 6000 -RA FEW006 SCT033 OVC083 05/04 Q1009 NOSIG
LHPP 191015Z 27002KT 7000 -RA FEW006 SCT033 OVC083 05/04 Q1009 NOSIG
LHPP 190945Z 23002KT 9999 -RA FEW010 SCT026 OVC083 04/03 Q1009 NOSIG
LHPP 190915Z 00000KT 9999 -RA FEW010 SCT026 OVC083 04/03 Q1009 NOSIG
LHPP 190845Z 22003KT 7000 -RA SCT010 OVC033 03/02 Q1009 NOSIG
LHPP 190815Z 19005KT 9999 -RA SCT013 OVC083 03/01 Q1009 NOSIG
LHPP 190745Z 00000KT 9999 -RA SCT013 OVC083 03/01 Q1009 NOSIG
LHPP 190715Z 11002KT 9999 -RA FEW010 OVC083 03/01 Q1009 NOSIG
LHPP 190645Z 00000KT 9999 -RA SCT040 OVC083 04/00 Q1009 NOSIG
LHPP 190615Z 22006KT 9999 SCT040 OVC083 04/00 Q1008 NOSIG
LHPP 190545Z 28005KT CAVOK 05/00 Q1008 RERA NOSIG